KSBY/SBY METAR and TAF weather

Enter ICAO airport designator
Station Type Date Time Source
KSBY METAR 2020/02/22 06:54 UTC NOAA

KSBY 220654Z AUTO 00000KT 10SM CLR M06/M10 A3041 RMK AO2 SLP302 T10561100


Station Type Date Time Source
KSBY Decoded METAR 2020/02/22 06:54 UTC NOAA

SALISBURY-WICOMICO CTY REG, MD, United States (KSBY) 38-20N 075-30W 19M
Feb 22, 2020 - 01:54 AM EST / 2020.02.22 0654 UTC
Wind: Calm:0
Visibility: 10 mile(s):0
Sky conditions: clear
Temperature: 21.9 F (-5.6 C)
Dew Point: 14.0 F (-10.0 C)
Relative Humidity: 71%
Pressure (altimeter): 30.41 in. Hg (1029 hPa)
ob: KSBY 220654Z AUTO 00000KT 10SM CLR M06/M10 A3041 RMK AO2 SLP302 T10561100
cycle: 7

Station Type Date Time Source
KSBY TAF 2020/02/22 06:36 UTC NOAA

TAF KSBY 220534Z 2206/2306 00000KT P6SM SKC
FM221400 25009KT P6SM SKC
FM230000 VRB03KT P6SM SKC

Example: see airport list